sensor_id;sensor_type;location;lat;lon;timestamp;P1;durP1;ratioP1;P2;durP2;ratioP2
26860;SDS011;37676;46.956;7.430;2022-08-21T00:00:11;1.08;;;0.40;;
26860;SDS011;37676;46.956;7.430;2022-08-21T00:02:47;0.98;;;0.40;;
26860;SDS011;37676;46.956;7.430;2022-08-21T00:05:14;0.75;;;0.32;;
26860;SDS011;37676;46.956;7.430;2022-08-21T00:07:40;1.02;;;0.57;;
26860;SDS011;37676;46.956;7.430;2022-08-21T00:10:06;1.10;;;0.50;;
26860;SDS011;37676;46.956;7.430;2022-08-21T00:12:31;0.73;;;0.40;;
26860;SDS011;37676;46.956;7.430;2022-08-21T00:14:57;1.77;;;0.52;;
26860;SDS011;37676;46.956;7.430;2022-08-21T00:17:23;0.68;;;0.40;;
26860;SDS011;37676;46.956;7.430;2022-08-21T00:19:48;1.45;;;0.52;;
26860;SDS011;37676;46.956;7.430;2022-08-21T00:22:13;1.00;;;0.50;;
26860;SDS011;37676;46.956;7.430;2022-08-21T00:24:39;1.17;;;0.45;;
26860;SDS011;37676;46.956;7.430;2022-08-21T00:27:04;0.57;;;0.40;;
26860;SDS011;37676;46.956;7.430;2022-08-21T00:29:29;0.70;;;0.30;;
26860;SDS011;37676;46.956;7.430;2022-08-21T00:31:55;0.85;;;0.43;;
26860;SDS011;37676;46.956;7.430;2022-08-21T00:34:20;0.85;;;0.50;;
26860;SDS011;37676;46.956;7.430;2022-08-21T00:36:45;0.80;;;0.40;;
26860;SDS011;37676;46.956;7.430;2022-08-21T00:39:11;1.75;;;0.40;;
26860;SDS011;37676;46.956;7.430;2022-08-21T00:41:37;0.90;;;0.50;;
26860;SDS011;37676;46.956;7.430;2022-08-21T00:44:04;2.15;;;0.40;;
26860;SDS011;37676;46.956;7.430;2022-08-21T00:46:34;0.80;;;0.40;;
26860;SDS011;37676;46.956;7.430;2022-08-21T00:48:59;1.10;;;0.60;;
26860;SDS011;37676;46.956;7.430;2022-08-21T00:51:27;0.90;;;0.40;;
26860;SDS011;37676;46.956;7.430;2022-08-21T00:53:57;0.68;;;0.30;;
26860;SDS011;37676;46.956;7.430;2022-08-21T00:56:26;1.13;;;0.52;;
26860;SDS011;37676;46.956;7.430;2022-08-21T00:58:52;0.73;;;0.35;;
26860;SDS011;37676;46.956;7.430;2022-08-21T01:01:20;0.90;;;0.40;;
26860;SDS011;37676;46.956;7.430;2022-08-21T01:03:46;1.33;;;0.60;;
26860;SDS011;37676;46.956;7.430;2022-08-21T01:06:12;1.15;;;0.60;;
26860;SDS011;37676;46.956;7.430;2022-08-21T01:08:37;1.30;;;0.50;;
26860;SDS011;37676;46.956;7.430;2022-08-21T01:11:03;1.20;;;0.52;;
26860;SDS011;37676;46.956;7.430;2022-08-21T01:13:29;1.42;;;0.73;;
26860;SDS011;37676;46.956;7.430;2022-08-21T01:15:57;1.45;;;0.50;;
26860;SDS011;37676;46.956;7.430;2022-08-21T01:18:24;1.40;;;0.60;;
26860;SDS011;37676;46.956;7.430;2022-08-21T01:23:37;1.02;;;0.50;;
26860;SDS011;37676;46.956;7.430;2022-08-21T01:26:04;0.60;;;0.30;;
26860;SDS011;37676;46.956;7.430;2022-08-21T01:28:31;0.52;;;0.30;;
26860;SDS011;37676;46.956;7.430;2022-08-21T01:31:05;0.90;;;0.50;;
26860;SDS011;37676;46.956;7.430;2022-08-21T01:33:32;0.98;;;0.50;;
26860;SDS011;37676;46.956;7.430;2022-08-21T01:35:58;1.17;;;0.50;;
26860;SDS011;37676;46.956;7.430;2022-08-21T01:38:24;4.03;;;0.40;;
26860;SDS011;37676;46.956;7.430;2022-08-21T01:40:49;0.50;;;0.30;;
26860;SDS011;37676;46.956;7.430;2022-08-21T01:43:14;1.00;;;0.45;;
26860;SDS011;37676;46.956;7.430;2022-08-21T01:45:40;0.57;;;0.38;;
26860;SDS011;37676;46.956;7.430;2022-08-21T01:48:05;1.33;;;0.40;;
26860;SDS011;37676;46.956;7.430;2022-08-21T01:50:31;0.85;;;0.30;;
26860;SDS011;37676;46.956;7.430;2022-08-21T01:52:56;0.65;;;0.30;;
26860;SDS011;37676;46.956;7.430;2022-08-21T01:55:22;0.82;;;0.40;;
26860;SDS011;37676;46.956;7.430;2022-08-21T01:57:47;0.68;;;0.32;;
26860;SDS011;37676;46.956;7.430;2022-08-21T02:00:14;1.00;;;0.40;;
26860;SDS011;37676;46.956;7.430;2022-08-21T02:02:42;0.60;;;0.20;;
26860;SDS011;37676;46.956;7.430;2022-08-21T02:05:09;0.93;;;0.30;;
26860;SDS011;37676;46.956;7.430;2022-08-21T02:07:39;0.50;;;0.30;;
26860;SDS011;37676;46.956;7.430;2022-08-21T02:10:10;0.57;;;0.30;;
26860;SDS011;37676;46.956;7.430;2022-08-21T02:12:38;0.73;;;0.30;;
26860;SDS011;37676;46.956;7.430;2022-08-21T02:15:04;0.57;;;0.30;;
26860;SDS011;37676;46.956;7.430;2022-08-21T02:17:41;0.55;;;0.30;;
26860;SDS011;37676;46.956;7.430;2022-08-21T02:20:10;0.40;;;0.20;;
26860;SDS011;37676;46.956;7.430;2022-08-21T02:22:40;0.57;;;0.20;;
26860;SDS011;37676;46.956;7.430;2022-08-21T02:25:06;0.30;;;0.20;;
26860;SDS011;37676;46.956;7.430;2022-08-21T02:27:37;0.45;;;0.22;;
26860;SDS011;37676;46.956;7.430;2022-08-21T02:30:07;0.43;;;0.25;;
26860;SDS011;37676;46.956;7.430;2022-08-21T02:32:36;0.40;;;0.20;;
26860;SDS011;37676;46.956;7.430;2022-08-21T02:35:02;0.50;;;0.20;;
26860;SDS011;37676;46.956;7.430;2022-08-21T02:37:28;0.63;;;0.22;;
26860;SDS011;37676;46.956;7.430;2022-08-21T02:39:53;0.38;;;0.30;;
26860;SDS011;37676;46.956;7.430;2022-08-21T02:42:19;0.25;;;0.20;;
26860;SDS011;37676;46.956;7.430;2022-08-21T02:44:44;0.22;;;0.20;;
26860;SDS011;37676;46.956;7.430;2022-08-21T02:47:10;0.63;;;0.30;;
26860;SDS011;37676;46.956;7.430;2022-08-21T02:49:35;0.43;;;0.25;;
26860;SDS011;37676;46.956;7.430;2022-08-21T02:52:00;0.30;;;0.20;;
26860;SDS011;37676;46.956;7.430;2022-08-21T02:54:26;0.50;;;0.30;;
26860;SDS011;37676;46.956;7.430;2022-08-21T02:56:51;0.30;;;0.20;;
26860;SDS011;37676;46.956;7.430;2022-08-21T02:59:16;0.35;;;0.20;;
26860;SDS011;37676;46.956;7.430;2022-08-21T03:01:41;0.60;;;0.20;;
26860;SDS011;37676;46.956;7.430;2022-08-21T03:04:07;0.52;;;0.20;;
26860;SDS011;37676;46.956;7.430;2022-08-21T03:06:32;0.38;;;0.20;;
26860;SDS011;37676;46.956;7.430;2022-08-21T03:08:58;0.47;;;0.30;;
26860;SDS011;37676;46.956;7.430;2022-08-21T03:11:24;0.60;;;0.30;;
26860;SDS011;37676;46.956;7.430;2022-08-21T03:13:50;0.60;;;0.30;;
26860;SDS011;37676;46.956;7.430;2022-08-21T03:16:16;0.68;;;0.30;;
26860;SDS011;37676;46.956;7.430;2022-08-21T03:18:41;0.80;;;0.30;;
26860;SDS011;37676;46.956;7.430;2022-08-21T03:21:06;1.33;;;0.50;;
26860;SDS011;37676;46.956;7.430;2022-08-21T03:23:32;1.30;;;0.50;;
26860;SDS011;37676;46.956;7.430;2022-08-21T03:25:57;0.95;;;0.50;;
26860;SDS011;37676;46.956;7.430;2022-08-21T03:28:23;0.77;;;0.35;;
26860;SDS011;37676;46.956;7.430;2022-08-21T03:30:49;0.63;;;0.30;;
26860;SDS011;37676;46.956;7.430;2022-08-21T03:33:16;0.50;;;0.22;;
26860;SDS011;37676;46.956;7.430;2022-08-21T03:35:43;0.50;;;0.30;;
26860;SDS011;37676;46.956;7.430;2022-08-21T03:38:12;1.38;;;0.28;;
26860;SDS011;37676;46.956;7.430;2022-08-21T03:40:38;0.30;;;0.20;;
26860;SDS011;37676;46.956;7.430;2022-08-21T03:43:03;0.60;;;0.30;;
26860;SDS011;37676;46.956;7.430;2022-08-21T03:45:29;0.63;;;0.30;;
26860;SDS011;37676;46.956;7.430;2022-08-21T03:47:59;0.52;;;0.25;;
26860;SDS011;37676;46.956;7.430;2022-08-21T03:50:28;0.40;;;0.30;;
26860;SDS011;37676;46.956;7.430;2022-08-21T03:52:57;0.50;;;0.30;;
26860;SDS011;37676;46.956;7.430;2022-08-21T03:55:23;0.28;;;0.20;;
26860;SDS011;37676;46.956;7.430;2022-08-21T03:57:50;1.00;;;0.30;;
26860;SDS011;37676;46.956;7.430;2022-08-21T04:00:15;0.43;;;0.20;;
26860;SDS011;37676;46.956;7.430;2022-08-21T04:02:42;0.50;;;0.30;;
26860;SDS011;37676;46.956;7.430;2022-08-21T04:05:09;0.57;;;0.30;;
26860;SDS011;37676;46.956;7.430;2022-08-21T04:07:35;0.47;;;0.30;;
26860;SDS011;37676;46.956;7.430;2022-08-21T04:10:01;0.55;;;0.25;;
26860;SDS011;37676;46.956;7.430;2022-08-21T04:12:26;0.45;;;0.30;;
26860;SDS011;37676;46.956;7.430;2022-08-21T04:14:51;0.75;;;0.35;;
26860;SDS011;37676;46.956;7.430;2022-08-21T04:17:17;0.70;;;0.30;;
26860;SDS011;37676;46.956;7.430;2022-08-21T04:19:43;0.50;;;0.30;;
26860;SDS011;37676;46.956;7.430;2022-08-21T04:22:08;0.47;;;0.20;;
26860;SDS011;37676;46.956;7.430;2022-08-21T04:24:34;0.90;;;0.20;;
26860;SDS011;37676;46.956;7.430;2022-08-21T04:26:59;0.38;;;0.20;;
26860;SDS011;37676;46.956;7.430;2022-08-21T04:29:25;0.30;;;0.20;;
26860;SDS011;37676;46.956;7.430;2022-08-21T04:31:50;0.80;;;0.30;;
26860;SDS011;37676;46.956;7.430;2022-08-21T04:34:17;0.60;;;0.38;;
26860;SDS011;37676;46.956;7.430;2022-08-21T04:36:43;0.70;;;0.32;;
26860;SDS011;37676;46.956;7.430;2022-08-21T04:39:08;0.65;;;0.40;;
26860;SDS011;37676;46.956;7.430;2022-08-21T04:41:33;0.82;;;0.30;;
26860;SDS011;37676;46.956;7.430;2022-08-21T04:44:00;0.88;;;0.40;;
26860;SDS011;37676;46.956;7.430;2022-08-21T04:46:26;1.20;;;0.40;;
26860;SDS011;37676;46.956;7.430;2022-08-21T04:48:51;1.20;;;0.40;;
26860;SDS011;37676;46.956;7.430;2022-08-21T04:51:24;0.80;;;0.32;;
26860;SDS011;37676;46.956;7.430;2022-08-21T04:53:53;0.40;;;0.20;;
26860;SDS011;37676;46.956;7.430;2022-08-21T04:57:01;0.40;;;0.30;;
26860;SDS011;37676;46.956;7.430;2022-08-21T04:59:22;0.68;;;0.35;;
26860;SDS011;37676;46.956;7.430;2022-08-21T05:01:51;0.65;;;0.30;;
26860;SDS011;37676;46.956;7.430;2022-08-21T05:04:18;0.98;;;0.40;;
26860;SDS011;37676;46.956;7.430;2022-08-21T05:06:47;0.80;;;0.40;;
26860;SDS011;37676;46.956;7.430;2022-08-21T05:09:14;0.95;;;0.40;;
26860;SDS011;37676;46.956;7.430;2022-08-21T05:11:41;1.13;;;0.47;;
26860;SDS011;37676;46.956;7.430;2022-08-21T05:14:08;1.40;;;0.60;;
26860;SDS011;37676;46.956;7.430;2022-08-21T05:16:34;1.08;;;0.50;;
26860;SDS011;37676;46.956;7.430;2022-08-21T05:19:00;0.75;;;0.40;;
26860;SDS011;37676;46.956;7.430;2022-08-21T05:21:25;0.70;;;0.40;;
26860;SDS011;37676;46.956;7.430;2022-08-21T05:23:51;0.73;;;0.40;;
26860;SDS011;37676;46.956;7.430;2022-08-21T05:26:16;0.77;;;0.40;;
26860;SDS011;37676;46.956;7.430;2022-08-21T05:28:41;0.80;;;0.40;;
26860;SDS011;37676;46.956;7.430;2022-08-21T05:31:06;0.65;;;0.40;;
26860;SDS011;37676;46.956;7.430;2022-08-21T05:33:32;0.70;;;0.40;;
26860;SDS011;37676;46.956;7.430;2022-08-21T05:35:58;0.90;;;0.40;;
26860;SDS011;37676;46.956;7.430;2022-08-21T05:38:24;0.90;;;0.50;;
26860;SDS011;37676;46.956;7.430;2022-08-21T05:40:52;0.65;;;0.30;;
26860;SDS011;37676;46.956;7.430;2022-08-21T05:43:17;1.05;;;0.50;;
26860;SDS011;37676;46.956;7.430;2022-08-21T05:45:43;1.17;;;0.40;;
26860;SDS011;37676;46.956;7.430;2022-08-21T05:48:09;0.73;;;0.30;;
26860;SDS011;37676;46.956;7.430;2022-08-21T05:50:36;0.93;;;0.45;;
26860;SDS011;37676;46.956;7.430;2022-08-21T05:53:03;0.55;;;0.30;;
26860;SDS011;37676;46.956;7.430;2022-08-21T05:55:29;1.10;;;0.40;;
26860;SDS011;37676;46.956;7.430;2022-08-21T05:57:54;1.35;;;0.47;;
26860;SDS011;37676;46.956;7.430;2022-08-21T06:00:19;0.47;;;0.25;;
26860;SDS011;37676;46.956;7.430;2022-08-21T06:02:45;0.73;;;0.30;;
26860;SDS011;37676;46.956;7.430;2022-08-21T06:05:10;0.63;;;0.30;;
26860;SDS011;37676;46.956;7.430;2022-08-21T06:07:35;0.45;;;0.30;;
26860;SDS011;37676;46.956;7.430;2022-08-21T06:10:00;2.13;;;0.47;;
26860;SDS011;37676;46.956;7.430;2022-08-21T06:12:27;0.65;;;0.32;;
26860;SDS011;37676;46.956;7.430;2022-08-21T06:14:52;0.70;;;0.40;;
26860;SDS011;37676;46.956;7.430;2022-08-21T06:17:17;0.40;;;0.20;;
26860;SDS011;37676;46.956;7.430;2022-08-21T06:19:43;0.45;;;0.30;;
26860;SDS011;37676;46.956;7.430;2022-08-21T06:22:09;0.60;;;0.30;;
26860;SDS011;37676;46.956;7.430;2022-08-21T06:24:34;0.30;;;0.20;;
26860;SDS011;37676;46.956;7.430;2022-08-21T06:27:04;0.55;;;0.20;;
26860;SDS011;37676;46.956;7.430;2022-08-21T06:29:30;0.52;;;0.20;;
26860;SDS011;37676;46.956;7.430;2022-08-21T06:31:57;0.25;;;0.20;;
26860;SDS011;37676;46.956;7.430;2022-08-21T06:34:22;0.63;;;0.28;;
26860;SDS011;37676;46.956;7.430;2022-08-21T06:36:48;0.68;;;0.30;;
26860;SDS011;37676;46.956;7.430;2022-08-21T06:39:13;0.70;;;0.38;;
26860;SDS011;37676;46.956;7.430;2022-08-21T06:41:38;0.20;;;0.20;;
26860;SDS011;37676;46.956;7.430;2022-08-21T06:44:04;0.40;;;0.20;;
26860;SDS011;37676;46.956;7.430;2022-08-21T06:46:29;1.00;;;0.40;;
26860;SDS011;37676;46.956;7.430;2022-08-21T06:48:55;0.20;;;0.20;;
26860;SDS011;37676;46.956;7.430;2022-08-21T06:51:21;1.25;;;0.30;;
26860;SDS011;37676;46.956;7.430;2022-08-21T06:53:47;0.70;;;0.30;;
26860;SDS011;37676;46.956;7.430;2022-08-21T06:56:14;0.40;;;0.25;;
26860;SDS011;37676;46.956;7.430;2022-08-21T06:58:39;0.50;;;0.30;;
26860;SDS011;37676;46.956;7.430;2022-08-21T07:01:06;0.38;;;0.25;;
26860;SDS011;37676;46.956;7.430;2022-08-21T07:03:33;0.75;;;0.30;;
26860;SDS011;37676;46.956;7.430;2022-08-21T07:06:02;0.57;;;0.28;;
26860;SDS011;37676;46.956;7.430;2022-08-21T07:08:28;0.40;;;0.20;;
26860;SDS011;37676;46.956;7.430;2022-08-21T07:10:55;0.57;;;0.40;;
26860;SDS011;37676;46.956;7.430;2022-08-21T07:13:22;0.47;;;0.30;;
26860;SDS011;37676;46.956;7.430;2022-08-21T07:15:48;0.38;;;0.28;;
26860;SDS011;37676;46.956;7.430;2022-08-21T07:18:13;0.40;;;0.20;;
26860;SDS011;37676;46.956;7.430;2022-08-21T07:20:39;0.60;;;0.30;;
26860;SDS011;37676;46.956;7.430;2022-08-21T07:23:08;0.40;;;0.30;;
26860;SDS011;37676;46.956;7.430;2022-08-21T07:25:36;0.40;;;0.30;;
26860;SDS011;37676;46.956;7.430;2022-08-21T07:28:02;0.30;;;0.30;;
26860;SDS011;37676;46.956;7.430;2022-08-21T07:30:28;1.27;;;0.40;;
26860;SDS011;37676;46.956;7.430;2022-08-21T07:32:53;0.60;;;0.30;;
26860;SDS011;37676;46.956;7.430;2022-08-21T07:35:20;1.42;;;0.50;;
26860;SDS011;37676;46.956;7.430;2022-08-21T07:37:46;0.70;;;0.40;;
26860;SDS011;37676;46.956;7.430;2022-08-21T07:40:11;0.63;;;0.30;;
26860;SDS011;37676;46.956;7.430;2022-08-21T07:42:44;0.75;;;0.25;;
26860;SDS011;37676;46.956;7.430;2022-08-21T07:45:11;0.50;;;0.20;;
26860;SDS011;37676;46.956;7.430;2022-08-21T07:47:37;0.40;;;0.30;;
26860;SDS011;37676;46.956;7.430;2022-08-21T07:50:03;0.73;;;0.40;;
26860;SDS011;37676;46.956;7.430;2022-08-21T07:52:30;0.93;;;0.40;;
26860;SDS011;37676;46.956;7.430;2022-08-21T07:54:55;0.93;;;0.43;;
26860;SDS011;37676;46.956;7.430;2022-08-21T07:57:20;0.57;;;0.30;;
26860;SDS011;37676;46.956;7.430;2022-08-21T07:59:46;0.97;;;0.40;;
26860;SDS011;37676;46.956;7.430;2022-08-21T08:02:21;0.95;;;0.52;;
26860;SDS011;37676;46.956;7.430;2022-08-21T08:04:47;0.98;;;0.57;;
26860;SDS011;37676;46.956;7.430;2022-08-21T08:07:12;0.95;;;0.40;;
26860;SDS011;37676;46.956;7.430;2022-08-21T08:09:38;0.88;;;0.40;;
26860;SDS011;37676;46.956;7.430;2022-08-21T08:12:03;1.30;;;0.60;;
26860;SDS011;37676;46.956;7.430;2022-08-21T08:14:29;1.10;;;0.60;;
26860;SDS011;37676;46.956;7.430;2022-08-21T08:16:54;1.23;;;0.57;;
26860;SDS011;37676;46.956;7.430;2022-08-21T08:19:19;1.00;;;0.57;;
26860;SDS011;37676;46.956;7.430;2022-08-21T08:21:45;0.93;;;0.40;;
26860;SDS011;37676;46.956;7.430;2022-08-21T08:24:10;0.88;;;0.52;;
26860;SDS011;37676;46.956;7.430;2022-08-21T08:26:35;0.95;;;0.32;;
26860;SDS011;37676;46.956;7.430;2022-08-21T08:29:00;1.10;;;0.50;;
26860;SDS011;37676;46.956;7.430;2022-08-21T08:31:26;2.13;;;0.40;;
26860;SDS011;37676;46.956;7.430;2022-08-21T08:33:52;0.90;;;0.40;;
26860;SDS011;37676;46.956;7.430;2022-08-21T08:36:17;1.73;;;0.60;;
26860;SDS011;37676;46.956;7.430;2022-08-21T08:38:44;1.02;;;0.38;;
26860;SDS011;37676;46.956;7.430;2022-08-21T08:41:14;0.80;;;0.50;;
26860;SDS011;37676;46.956;7.430;2022-08-21T08:43:44;1.05;;;0.40;;
26860;SDS011;37676;46.956;7.430;2022-08-21T08:46:18;0.77;;;0.50;;
26860;SDS011;37676;46.956;7.430;2022-08-21T08:49:00;0.95;;;0.40;;
26860;SDS011;37676;46.956;7.430;2022-08-21T08:52:17;0.90;;;0.40;;
26860;SDS011;37676;46.956;7.430;2022-08-21T08:55:15;0.95;;;0.43;;
26860;SDS011;37676;46.956;7.430;2022-08-21T08:57:30;0.47;;;0.30;;
26860;SDS011;37676;46.956;7.430;2022-08-21T08:59:58;0.70;;;0.40;;
26860;SDS011;37676;46.956;7.430;2022-08-21T09:02:25;0.80;;;0.40;;
26860;SDS011;37676;46.956;7.430;2022-08-21T09:04:52;0.65;;;0.43;;
26860;SDS011;37676;46.956;7.430;2022-08-21T09:07:28;0.63;;;0.40;;
26860;SDS011;37676;46.956;7.430;2022-08-21T09:15:02;1.38;;;0.57;;
26860;SDS011;37676;46.956;7.430;2022-08-21T09:22:53;0.93;;;0.50;;
26860;SDS011;37676;46.956;7.430;2022-08-21T09:25:25;1.00;;;0.50;;
26860;SDS011;37676;46.956;7.430;2022-08-21T09:27:54;0.32;;;0.20;;
26860;SDS011;37676;46.956;7.430;2022-08-21T09:30:24;0.30;;;0.20;;
26860;SDS011;37676;46.956;7.430;2022-08-21T09:32:52;1.48;;;0.40;;
26860;SDS011;37676;46.956;7.430;2022-08-21T09:35:19;0.82;;;0.40;;
26860;SDS011;37676;46.956;7.430;2022-08-21T09:37:56;0.40;;;0.20;;
26860;SDS011;37676;46.956;7.430;2022-08-21T09:43:03;0.43;;;0.20;;
26860;SDS011;37676;46.956;7.430;2022-08-21T09:45:31;0.70;;;0.28;;
26860;SDS011;37676;46.956;7.430;2022-08-21T09:48:08;0.98;;;0.40;;
26860;SDS011;37676;46.956;7.430;2022-08-21T09:50:36;0.88;;;0.30;;
26860;SDS011;37676;46.956;7.430;2022-08-21T09:53:01;0.60;;;0.30;;
26860;SDS011;37676;46.956;7.430;2022-08-21T09:58:17;2.28;;;0.45;;
26860;SDS011;37676;46.956;7.430;2022-08-21T10:00:44;0.68;;;0.32;;
26860;SDS011;37676;46.956;7.430;2022-08-21T10:03:10;1.40;;;0.50;;
26860;SDS011;37676;46.956;7.430;2022-08-21T10:05:49;0.80;;;0.40;;
26860;SDS011;37676;46.956;7.430;2022-08-21T10:08:24;0.80;;;0.40;;
26860;SDS011;37676;46.956;7.430;2022-08-21T10:10:55;1.48;;;0.50;;
26860;SDS011;37676;46.956;7.430;2022-08-21T10:13:44;0.68;;;0.40;;
26860;SDS011;37676;46.956;7.430;2022-08-21T10:16:27;0.50;;;0.30;;
26860;SDS011;37676;46.956;7.430;2022-08-21T10:29:57;0.40;;;0.30;;
26860;SDS011;37676;46.956;7.430;2022-08-21T10:35:29;0.30;;;0.20;;
26860;SDS011;37676;46.956;7.430;2022-08-21T10:43:39;1.17;;;0.40;;
26860;SDS011;37676;46.956;7.430;2022-08-21T10:46:32;0.90;;;0.50;;
26860;SDS011;37676;46.956;7.430;2022-08-21T10:54:40;0.77;;;0.30;;
26860;SDS011;37676;46.956;7.430;2022-08-21T10:57:16;1.52;;;0.50;;
26860;SDS011;37676;46.956;7.430;2022-08-21T10:59:59;0.60;;;0.30;;
26860;SDS011;37676;46.956;7.430;2022-08-21T11:05:46;0.45;;;0.30;;
26860;SDS011;37676;46.956;7.430;2022-08-21T11:08:23;0.20;;;0.20;;
26860;SDS011;37676;46.956;7.430;2022-08-21T11:10:56;0.43;;;0.30;;
26860;SDS011;37676;46.956;7.430;2022-08-21T11:18:53;0.57;;;0.30;;
26860;SDS011;37676;46.956;7.430;2022-08-21T11:21:35;0.28;;;0.25;;
26860;SDS011;37676;46.956;7.430;2022-08-21T11:26:58;0.88;;;0.38;;
26860;SDS011;37676;46.956;7.430;2022-08-21T11:29:44;0.73;;;0.30;;
26860;SDS011;37676;46.956;7.430;2022-08-21T11:35:22;0.63;;;0.40;;
26860;SDS011;37676;46.956;7.430;2022-08-21T11:40:38;0.30;;;0.20;;
26860;SDS011;37676;46.956;7.430;2022-08-21T11:43:12;0.38;;;0.22;;
26860;SDS011;37676;46.956;7.430;2022-08-21T11:51:20;0.60;;;0.32;;
26860;SDS011;37676;46.956;7.430;2022-08-21T11:56:36;0.98;;;0.40;;
26860;SDS011;37676;46.956;7.430;2022-08-21T11:59:11;0.30;;;0.20;;
26860;SDS011;37676;46.956;7.430;2022-08-21T12:01:46;0.25;;;0.15;;
26860;SDS011;37676;46.956;7.430;2022-08-21T12:04:28;0.52;;;0.30;;
26860;SDS011;37676;46.956;7.430;2022-08-21T12:07:08;0.20;;;0.20;;
26860;SDS011;37676;46.956;7.430;2022-08-21T12:09:35;0.25;;;0.20;;
26860;SDS011;37676;46.956;7.430;2022-08-21T12:17:41;0.45;;;0.20;;
26860;SDS011;37676;46.956;7.430;2022-08-21T12:22:49;0.30;;;0.20;;
26860;SDS011;37676;46.956;7.430;2022-08-21T12:25:18;0.60;;;0.30;;
26860;SDS011;37676;46.956;7.430;2022-08-21T12:27:47;0.50;;;0.30;;
26860;SDS011;37676;46.956;7.430;2022-08-21T12:30:20;0.47;;;0.20;;
26860;SDS011;37676;46.956;7.430;2022-08-21T12:33:01;0.43;;;0.30;;
26860;SDS011;37676;46.956;7.430;2022-08-21T12:35:38;0.50;;;0.30;;
26860;SDS011;37676;46.956;7.430;2022-08-21T12:38:19;0.30;;;0.20;;
26860;SDS011;37676;46.956;7.430;2022-08-21T12:40:52;0.30;;;0.20;;
26860;SDS011;37676;46.956;7.430;2022-08-21T12:43:24;0.40;;;0.22;;
26860;SDS011;37676;46.956;7.430;2022-08-21T12:45:56;0.38;;;0.25;;
26860;SDS011;37676;46.956;7.430;2022-08-21T12:53:29;0.30;;;0.10;;
26860;SDS011;37676;46.956;7.430;2022-08-21T12:56:04;0.73;;;0.20;;
26860;SDS011;37676;46.956;7.430;2022-08-21T12:58:34;0.20;;;0.20;;
26860;SDS011;37676;46.956;7.430;2022-08-21T13:01:05;1.27;;;0.10;;
26860;SDS011;37676;46.956;7.430;2022-08-21T13:03:38;0.20;;;0.20;;
26860;SDS011;37676;46.956;7.430;2022-08-21T13:06:05;1.35;;;0.55;;
26860;SDS011;37676;46.956;7.430;2022-08-21T13:08:32;0.70;;;0.30;;
26860;SDS011;37676;46.956;7.430;2022-08-21T13:11:00;0.38;;;0.30;;
26860;SDS011;37676;46.956;7.430;2022-08-21T13:13:28;0.40;;;0.20;;
26860;SDS011;37676;46.956;7.430;2022-08-21T13:15:59;0.10;;;0.10;;
26860;SDS011;37676;46.956;7.430;2022-08-21T13:18:28;0.60;;;0.25;;
26860;SDS011;37676;46.956;7.430;2022-08-21T13:21:29;0.50;;;0.10;;
26860;SDS011;37676;46.956;7.430;2022-08-21T13:23:52;0.40;;;0.20;;
26860;SDS011;37676;46.956;7.430;2022-08-21T13:26:21;0.25;;;0.10;;
26860;SDS011;37676;46.956;7.430;2022-08-21T13:28:47;0.30;;;0.20;;
26860;SDS011;37676;46.956;7.430;2022-08-21T13:31:20;0.28;;;0.20;;
26860;SDS011;37676;46.956;7.430;2022-08-21T13:33:49;0.45;;;0.10;;
26860;SDS011;37676;46.956;7.430;2022-08-21T13:36:24;0.47;;;0.20;;
26860;SDS011;37676;46.956;7.430;2022-08-21T13:38:54;0.40;;;0.28;;
26860;SDS011;37676;46.956;7.430;2022-08-21T13:41:21;0.20;;;0.13;;
26860;SDS011;37676;46.956;7.430;2022-08-21T13:44:00;0.20;;;0.20;;
26860;SDS011;37676;46.956;7.430;2022-08-21T13:46:30;0.40;;;0.28;;
26860;SDS011;37676;46.956;7.430;2022-08-21T13:48:59;0.10;;;0.10;;
26860;SDS011;37676;46.956;7.430;2022-08-21T13:51:25;0.10;;;0.10;;
26860;SDS011;37676;46.956;7.430;2022-08-21T13:53:52;0.35;;;0.20;;
26860;SDS011;37676;46.956;7.430;2022-08-21T13:59:05;0.55;;;0.20;;
26860;SDS011;37676;46.956;7.430;2022-08-21T14:01:37;0.30;;;0.10;;
26860;SDS011;37676;46.956;7.430;2022-08-21T14:04:33;0.43;;;0.20;;
26860;SDS011;37676;46.956;7.430;2022-08-21T14:07:01;0.30;;;0.20;;
26860;SDS011;37676;46.956;7.430;2022-08-21T14:09:39;0.32;;;0.20;;
26860;SDS011;37676;46.956;7.430;2022-08-21T14:12:28;0.10;;;0.10;;
26860;SDS011;37676;46.956;7.430;2022-08-21T14:14:57;0.57;;;0.10;;
26860;SDS011;37676;46.956;7.430;2022-08-21T14:17:32;0.50;;;0.20;;
26860;SDS011;37676;46.956;7.430;2022-08-21T14:20:03;0.22;;;0.20;;
26860;SDS011;37676;46.956;7.430;2022-08-21T14:25:07;0.60;;;0.20;;
26860;SDS011;37676;46.956;7.430;2022-08-21T14:30:28;0.32;;;0.20;;
26860;SDS011;37676;46.956;7.430;2022-08-21T14:32:56;0.20;;;0.10;;
26860;SDS011;37676;46.956;7.430;2022-08-21T14:35:22;0.20;;;0.20;;
26860;SDS011;37676;46.956;7.430;2022-08-21T14:37:48;0.30;;;0.13;;
26860;SDS011;37676;46.956;7.430;2022-08-21T14:40:17;0.52;;;0.20;;
26860;SDS011;37676;46.956;7.430;2022-08-21T14:42:44;0.30;;;0.10;;
26860;SDS011;37676;46.956;7.430;2022-08-21T14:45:29;0.30;;;0.20;;
26860;SDS011;37676;46.956;7.430;2022-08-21T14:47:56;0.30;;;0.20;;
26860;SDS011;37676;46.956;7.430;2022-08-21T14:50:22;0.50;;;0.20;;
26860;SDS011;37676;46.956;7.430;2022-08-21T14:52:48;0.63;;;0.20;;
26860;SDS011;37676;46.956;7.430;2022-08-21T14:55:14;0.38;;;0.20;;
26860;SDS011;37676;46.956;7.430;2022-08-21T14:57:41;0.20;;;0.20;;
26860;SDS011;37676;46.956;7.430;2022-08-21T15:00:14;0.20;;;0.17;;
26860;SDS011;37676;46.956;7.430;2022-08-21T15:02:42;0.55;;;0.20;;
26860;SDS011;37676;46.956;7.430;2022-08-21T15:05:07;0.32;;;0.20;;
26860;SDS011;37676;46.956;7.430;2022-08-21T15:07:33;0.32;;;0.20;;
26860;SDS011;37676;46.956;7.430;2022-08-21T15:09:58;1.60;;;0.30;;
26860;SDS011;37676;46.956;7.430;2022-08-21T15:12:24;0.10;;;0.10;;
26860;SDS011;37676;46.956;7.430;2022-08-21T15:14:49;0.10;;;0.10;;
26860;SDS011;37676;46.956;7.430;2022-08-21T15:17:15;0.13;;;0.10;;
26860;SDS011;37676;46.956;7.430;2022-08-21T15:19:40;0.28;;;0.20;;
26860;SDS011;37676;46.956;7.430;2022-08-21T15:22:06;0.20;;;0.20;;
26860;SDS011;37676;46.956;7.430;2022-08-21T15:24:32;0.43;;;0.13;;
26860;SDS011;37676;46.956;7.430;2022-08-21T15:26:58;0.30;;;0.20;;
26860;SDS011;37676;46.956;7.430;2022-08-21T15:29:25;0.30;;;0.17;;
26860;SDS011;37676;46.956;7.430;2022-08-21T15:31:52;0.30;;;0.10;;
26860;SDS011;37676;46.956;7.430;2022-08-21T15:34:18;0.20;;;0.20;;
26860;SDS011;37676;46.956;7.430;2022-08-21T15:36:44;0.30;;;0.20;;
26860;SDS011;37676;46.956;7.430;2022-08-21T15:39:10;0.22;;;0.15;;
26860;SDS011;37676;46.956;7.430;2022-08-21T15:41:35;0.35;;;0.15;;
26860;SDS011;37676;46.956;7.430;2022-08-21T15:44:00;0.50;;;0.22;;
26860;SDS011;37676;46.956;7.430;2022-08-21T15:46:26;0.40;;;0.22;;
26860;SDS011;37676;46.956;7.430;2022-08-21T15:48:51;0.17;;;0.10;;
26860;SDS011;37676;46.956;7.430;2022-08-21T15:51:17;0.30;;;0.20;;
26860;SDS011;37676;46.956;7.430;2022-08-21T15:53:42;0.52;;;0.20;;
26860;SDS011;37676;46.956;7.430;2022-08-21T15:56:14;0.40;;;0.20;;
26860;SDS011;37676;46.956;7.430;2022-08-21T15:58:46;0.47;;;0.30;;
26860;SDS011;37676;46.956;7.430;2022-08-21T16:01:12;0.43;;;0.15;;
26860;SDS011;37676;46.956;7.430;2022-08-21T16:03:38;0.10;;;0.10;;
26860;SDS011;37676;46.956;7.430;2022-08-21T16:06:04;0.43;;;0.20;;
26860;SDS011;37676;46.956;7.430;2022-08-21T16:08:29;0.52;;;0.20;;
26860;SDS011;37676;46.956;7.430;2022-08-21T16:10:54;0.20;;;0.10;;
26860;SDS011;37676;46.956;7.430;2022-08-21T16:13:24;0.20;;;0.20;;
26860;SDS011;37676;46.956;7.430;2022-08-21T16:15:53;0.10;;;0.10;;
26860;SDS011;37676;46.956;7.430;2022-08-21T16:18:19;0.63;;;0.30;;
26860;SDS011;37676;46.956;7.430;2022-08-21T16:20:47;0.40;;;0.20;;
26860;SDS011;37676;46.956;7.430;2022-08-21T16:23:13;0.28;;;0.20;;
26860;SDS011;37676;46.956;7.430;2022-08-21T16:25:39;0.30;;;0.20;;